sensor_id;sensor_type;location;lat;lon;timestamp;temperature;humidity
29547;DHT22;40782;47.264;11.330;2023-08-06T00:01:10;14.50;99.90
29547;DHT22;40782;47.264;11.330;2023-08-06T00:03:37;14.40;99.90
29547;DHT22;40782;47.264;11.330;2023-08-06T00:06:04;14.50;99.90
29547;DHT22;40782;47.264;11.330;2023-08-06T00:08:31;14.40;99.90
29547;DHT22;40782;47.264;11.330;2023-08-06T00:10:59;14.50;99.90
29547;DHT22;40782;47.264;11.330;2023-08-06T00:13:26;14.50;99.90
29547;DHT22;40782;47.264;11.330;2023-08-06T00:15:53;14.50;99.90
29547;DHT22;40782;47.264;11.330;2023-08-06T00:18:21;14.40;99.90
29547;DHT22;40782;47.264;11.330;2023-08-06T00:20:48;14.40;99.90
29547;DHT22;40782;47.264;11.330;2023-08-06T00:23:15;14.40;99.90
29547;DHT22;40782;47.264;11.330;2023-08-06T00:25:43;14.20;99.90
29547;DHT22;40782;47.264;11.330;2023-08-06T00:28:10;14.20;99.90
29547;DHT22;40782;47.264;11.330;2023-08-06T00:30:37;14.20;99.90
29547;DHT22;40782;47.264;11.330;2023-08-06T00:33:04;14.10;99.90
29547;DHT22;40782;47.264;11.330;2023-08-06T00:35:32;14.20;99.90
29547;DHT22;40782;47.264;11.330;2023-08-06T00:37:59;14.10;99.90
29547;DHT22;40782;47.264;11.330;2023-08-06T00:40:26;14.00;99.90
29547;DHT22;40782;47.264;11.330;2023-08-06T00:42:55;14.00;99.90
29547;DHT22;40782;47.264;11.330;2023-08-06T00:45:22;14.10;99.90
29547;DHT22;40782;47.264;11.330;2023-08-06T00:47:50;14.10;99.90
29547;DHT22;40782;47.264;11.330;2023-08-06T00:50:17;14.20;99.90
29547;DHT22;40782;47.264;11.330;2023-08-06T00:52:48;14.10;99.90
29547;DHT22;40782;47.264;11.330;2023-08-06T00:55:15;14.10;99.90
29547;DHT22;40782;47.264;11.330;2023-08-06T00:57:42;14.10;99.90
29547;DHT22;40782;47.264;11.330;2023-08-06T01:00:09;14.10;99.90
29547;DHT22;40782;47.264;11.330;2023-08-06T01:02:37;14.10;99.90
29547;DHT22;40782;47.264;11.330;2023-08-06T01:05:04;14.10;99.90
29547;DHT22;40782;47.264;11.330;2023-08-06T01:07:35;14.20;99.90
29547;DHT22;40782;47.264;11.330;2023-08-06T01:10:15;14.10;99.90
29547;DHT22;40782;47.264;11.330;2023-08-06T01:12:48;14.20;99.90
29547;DHT22;40782;47.264;11.330;2023-08-06T01:15:19;14.20;99.90
29547;DHT22;40782;47.264;11.330;2023-08-06T01:17:47;14.30;99.90
29547;DHT22;40782;47.264;11.330;2023-08-06T01:20:15;14.30;99.90
29547;DHT22;40782;47.264;11.330;2023-08-06T01:22:43;14.40;99.90
29547;DHT22;40782;47.264;11.330;2023-08-06T01:25:10;14.40;99.90
29547;DHT22;40782;47.264;11.330;2023-08-06T01:27:43;14.40;99.90
29547;DHT22;40782;47.264;11.330;2023-08-06T01:30:12;14.50;99.90
29547;DHT22;40782;47.264;11.330;2023-08-06T01:32:40;14.50;99.90
29547;DHT22;40782;47.264;11.330;2023-08-06T01:35:09;14.50;99.90
29547;DHT22;40782;47.264;11.330;2023-08-06T01:37:37;14.50;99.90
29547;DHT22;40782;47.264;11.330;2023-08-06T01:40:07;14.50;99.90
29547;DHT22;40782;47.264;11.330;2023-08-06T01:42:36;14.30;99.90
29547;DHT22;40782;47.264;11.330;2023-08-06T01:45:04;14.30;99.90
29547;DHT22;40782;47.264;11.330;2023-08-06T01:47:31;14.30;99.90
29547;DHT22;40782;47.264;11.330;2023-08-06T01:49:58;14.30;99.90
29547;DHT22;40782;47.264;11.330;2023-08-06T01:52:26;14.10;99.90
29547;DHT22;40782;47.264;11.330;2023-08-06T01:54:53;14.10;99.90
29547;DHT22;40782;47.264;11.330;2023-08-06T01:57:21;14.00;99.90
29547;DHT22;40782;47.264;11.330;2023-08-06T01:59:48;14.00;99.90
29547;DHT22;40782;47.264;11.330;2023-08-06T02:02:16;14.00;99.90
29547;DHT22;40782;47.264;11.330;2023-08-06T02:04:43;14.00;99.90
29547;DHT22;40782;47.264;11.330;2023-08-06T02:07:10;14.00;99.90
29547;DHT22;40782;47.264;11.330;2023-08-06T02:09:37;14.00;99.90
29547;DHT22;40782;47.264;11.330;2023-08-06T02:12:04;13.90;99.90
29547;DHT22;40782;47.264;11.330;2023-08-06T02:14:32;13.90;99.90
29547;DHT22;40782;47.264;11.330;2023-08-06T02:17:00;13.80;99.90
29547;DHT22;40782;47.264;11.330;2023-08-06T02:19:27;13.80;99.90
29547;DHT22;40782;47.264;11.330;2023-08-06T02:21:54;13.80;99.90
29547;DHT22;40782;47.264;11.330;2023-08-06T02:24:21;13.70;99.90
29547;DHT22;40782;47.264;11.330;2023-08-06T02:26:48;13.70;99.90
29547;DHT22;40782;47.264;11.330;2023-08-06T02:29:17;13.70;99.90
29547;DHT22;40782;47.264;11.330;2023-08-06T02:31:45;13.70;99.90
29547;DHT22;40782;47.264;11.330;2023-08-06T02:34:12;13.60;99.90
29547;DHT22;40782;47.264;11.330;2023-08-06T02:36:39;13.60;99.90
29547;DHT22;40782;47.264;11.330;2023-08-06T02:39:06;13.60;99.90
29547;DHT22;40782;47.264;11.330;2023-08-06T02:41:33;13.60;99.90
29547;DHT22;40782;47.264;11.330;2023-08-06T02:44:00;13.60;99.90
29547;DHT22;40782;47.264;11.330;2023-08-06T02:46:28;13.60;99.90
29547;DHT22;40782;47.264;11.330;2023-08-06T02:48:56;13.60;99.90
29547;DHT22;40782;47.264;11.330;2023-08-06T02:51:23;13.60;99.90
29547;DHT22;40782;47.264;11.330;2023-08-06T02:53:51;13.60;99.90
29547;DHT22;40782;47.264;11.330;2023-08-06T02:56:18;13.60;99.90
29547;DHT22;40782;47.264;11.330;2023-08-06T02:58:45;13.60;99.90
29547;DHT22;40782;47.264;11.330;2023-08-06T03:01:14;13.60;99.90
29547;DHT22;40782;47.264;11.330;2023-08-06T03:03:41;13.60;99.90
29547;DHT22;40782;47.264;11.330;2023-08-06T03:06:09;13.60;99.90
29547;DHT22;40782;47.264;11.330;2023-08-06T03:08:36;13.50;99.90
29547;DHT22;40782;47.264;11.330;2023-08-06T03:11:03;13.50;99.90
29547;DHT22;40782;47.264;11.330;2023-08-06T03:13:30;13.50;99.90
29547;DHT22;40782;47.264;11.330;2023-08-06T03:15:58;13.50;99.90
29547;DHT22;40782;47.264;11.330;2023-08-06T03:18:25;13.50;99.90
29547;DHT22;40782;47.264;11.330;2023-08-06T03:20:52;13.50;99.90
29547;DHT22;40782;47.264;11.330;2023-08-06T03:23:21;13.50;99.90
29547;DHT22;40782;47.264;11.330;2023-08-06T03:25:48;13.50;99.90
29547;DHT22;40782;47.264;11.330;2023-08-06T03:28:16;13.50;99.90
29547;DHT22;40782;47.264;11.330;2023-08-06T03:30:43;13.40;99.90
29547;DHT22;40782;47.264;11.330;2023-08-06T03:33:10;13.40;99.90
29547;DHT22;40782;47.264;11.330;2023-08-06T03:35:37;13.40;99.90
29547;DHT22;40782;47.264;11.330;2023-08-06T03:38:04;13.40;99.90
29547;DHT22;40782;47.264;11.330;2023-08-06T03:40:34;13.40;99.90
29547;DHT22;40782;47.264;11.330;2023-08-06T03:43:01;13.40;99.90
29547;DHT22;40782;47.264;11.330;2023-08-06T03:45:28;13.40;99.90
29547;DHT22;40782;47.264;11.330;2023-08-06T03:47:55;13.40;99.90
29547;DHT22;40782;47.264;11.330;2023-08-06T03:50:22;13.40;99.90
29547;DHT22;40782;47.264;11.330;2023-08-06T03:52:49;13.40;99.90
29547;DHT22;40782;47.264;11.330;2023-08-06T03:55:16;13.40;99.90
29547;DHT22;40782;47.264;11.330;2023-08-06T03:57:45;13.40;99.90
29547;DHT22;40782;47.264;11.330;2023-08-06T04:00:12;13.40;99.90
29547;DHT22;40782;47.264;11.330;2023-08-06T04:02:39;13.40;99.90
29547;DHT22;40782;47.264;11.330;2023-08-06T04:05:07;13.50;99.90
29547;DHT22;40782;47.264;11.330;2023-08-06T04:07:34;13.50;99.90
29547;DHT22;40782;47.264;11.330;2023-08-06T04:10:02;13.50;99.90
29547;DHT22;40782;47.264;11.330;2023-08-06T04:12:29;13.50;99.90
29547;DHT22;40782;47.264;11.330;2023-08-06T04:14:58;13.50;99.90
29547;DHT22;40782;47.264;11.330;2023-08-06T04:17:25;13.50;99.90
29547;DHT22;40782;47.264;11.330;2023-08-06T04:19:53;13.50;99.90
29547;DHT22;40782;47.264;11.330;2023-08-06T04:22:20;13.60;99.90
29547;DHT22;40782;47.264;11.330;2023-08-06T04:24:48;13.60;99.90
29547;DHT22;40782;47.264;11.330;2023-08-06T04:27:15;13.50;99.90
29547;DHT22;40782;47.264;11.330;2023-08-06T04:29:42;13.50;99.90
29547;DHT22;40782;47.264;11.330;2023-08-06T04:32:11;13.50;99.90
29547;DHT22;40782;47.264;11.330;2023-08-06T04:34:38;13.50;99.90
29547;DHT22;40782;47.264;11.330;2023-08-06T04:37:05;13.50;99.90
29547;DHT22;40782;47.264;11.330;2023-08-06T04:39:32;13.50;99.90
29547;DHT22;40782;47.264;11.330;2023-08-06T04:41:59;13.50;99.90
29547;DHT22;40782;47.264;11.330;2023-08-06T04:44:26;13.60;99.90
29547;DHT22;40782;47.264;11.330;2023-08-06T04:46:53;13.60;99.90
29547;DHT22;40782;47.264;11.330;2023-08-06T04:49:21;13.70;99.90
29547;DHT22;40782;47.264;11.330;2023-08-06T04:51:48;13.70;99.90
29547;DHT22;40782;47.264;11.330;2023-08-06T04:54:15;13.70;99.90
29547;DHT22;40782;47.264;11.330;2023-08-06T04:56:42;13.70;99.90
29547;DHT22;40782;47.264;11.330;2023-08-06T04:59:10;13.70;99.90
29547;DHT22;40782;47.264;11.330;2023-08-06T05:01:37;13.60;99.90
29547;DHT22;40782;47.264;11.330;2023-08-06T05:04:04;13.40;99.90
29547;DHT22;40782;47.264;11.330;2023-08-06T05:06:32;13.40;99.90
29547;DHT22;40782;47.264;11.330;2023-08-06T05:08:59;13.40;99.90
29547;DHT22;40782;47.264;11.330;2023-08-06T05:11:26;13.50;99.90
29547;DHT22;40782;47.264;11.330;2023-08-06T05:13:54;13.60;99.90
29547;DHT22;40782;47.264;11.330;2023-08-06T05:16:21;13.70;99.90
29547;DHT22;40782;47.264;11.330;2023-08-06T05:18:48;13.70;99.90
29547;DHT22;40782;47.264;11.330;2023-08-06T05:21:15;13.60;99.90
29547;DHT22;40782;47.264;11.330;2023-08-06T05:23:44;13.70;99.90
29547;DHT22;40782;47.264;11.330;2023-08-06T05:26:11;13.60;99.90
29547;DHT22;40782;47.264;11.330;2023-08-06T05:28:40;13.70;99.90
29547;DHT22;40782;47.264;11.330;2023-08-06T05:31:07;13.70;99.90
29547;DHT22;40782;47.264;11.330;2023-08-06T05:33:34;13.70;99.90
29547;DHT22;40782;47.264;11.330;2023-08-06T05:36:01;13.70;99.90
29547;DHT22;40782;47.264;11.330;2023-08-06T05:38:29;13.80;99.90
29547;DHT22;40782;47.264;11.330;2023-08-06T05:40:57;13.90;99.90
29547;DHT22;40782;47.264;11.330;2023-08-06T05:43:25;13.80;99.90
29547;DHT22;40782;47.264;11.330;2023-08-06T05:45:52;13.80;99.90
29547;DHT22;40782;47.264;11.330;2023-08-06T05:48:18;13.80;99.90
29547;DHT22;40782;47.264;11.330;2023-08-06T05:50:48;13.80;99.90
29547;DHT22;40782;47.264;11.330;2023-08-06T05:53:15;13.80;99.90
29547;DHT22;40782;47.264;11.330;2023-08-06T05:55:42;13.80;99.90
29547;DHT22;40782;47.264;11.330;2023-08-06T05:58:10;13.70;99.90
29547;DHT22;40782;47.264;11.330;2023-08-06T06:00:37;13.80;99.90
29547;DHT22;40782;47.264;11.330;2023-08-06T06:03:04;13.90;99.90
29547;DHT22;40782;47.264;11.330;2023-08-06T06:05:31;13.90;99.90
29547;DHT22;40782;47.264;11.330;2023-08-06T06:07:58;13.90;99.90
29547;DHT22;40782;47.264;11.330;2023-08-06T06:10:26;13.90;99.90
29547;DHT22;40782;47.264;11.330;2023-08-06T06:12:53;14.00;99.90
29547;DHT22;40782;47.264;11.330;2023-08-06T06:15:21;14.00;99.90
29547;DHT22;40782;47.264;11.330;2023-08-06T06:17:48;14.00;99.90
29547;DHT22;40782;47.264;11.330;2023-08-06T06:20:15;14.10;99.90
29547;DHT22;40782;47.264;11.330;2023-08-06T06:22:42;14.10;99.90
29547;DHT22;40782;47.264;11.330;2023-08-06T06:25:10;14.20;99.90
29547;DHT22;40782;47.264;11.330;2023-08-06T06:27:37;14.30;99.90
29547;DHT22;40782;47.264;11.330;2023-08-06T06:30:04;14.30;99.90
29547;DHT22;40782;47.264;11.330;2023-08-06T06:32:33;14.40;99.90
29547;DHT22;40782;47.264;11.330;2023-08-06T06:35:00;14.50;99.90
29547;DHT22;40782;47.264;11.330;2023-08-06T06:37:27;14.50;99.90
29547;DHT22;40782;47.264;11.330;2023-08-06T06:39:55;14.50;99.90
29547;DHT22;40782;47.264;11.330;2023-08-06T06:42:22;14.50;99.90
29547;DHT22;40782;47.264;11.330;2023-08-06T06:44:49;14.50;99.90
29547;DHT22;40782;47.264;11.330;2023-08-06T06:47:16;14.60;99.90
29547;DHT22;40782;47.264;11.330;2023-08-06T06:49:44;14.70;99.90
29547;DHT22;40782;47.264;11.330;2023-08-06T06:52:11;14.80;99.90
29547;DHT22;40782;47.264;11.330;2023-08-06T06:54:38;14.80;99.90
29547;DHT22;40782;47.264;11.330;2023-08-06T06:57:05;15.00;99.90
29547;DHT22;40782;47.264;11.330;2023-08-06T06:59:32;15.00;99.90
29547;DHT22;40782;47.264;11.330;2023-08-06T07:01:59;15.10;99.90
29547;DHT22;40782;47.264;11.330;2023-08-06T07:04:26;15.10;99.90
29547;DHT22;40782;47.264;11.330;2023-08-06T07:06:55;15.10;99.90
29547;DHT22;40782;47.264;11.330;2023-08-06T07:09:22;15.10;99.90
29547;DHT22;40782;47.264;11.330;2023-08-06T07:11:49;15.10;99.90
29547;DHT22;40782;47.264;11.330;2023-08-06T07:14:16;15.10;99.90
29547;DHT22;40782;47.264;11.330;2023-08-06T07:16:43;15.10;99.90
29547;DHT22;40782;47.264;11.330;2023-08-06T07:19:10;15.30;99.90
29547;DHT22;40782;47.264;11.330;2023-08-06T07:21:37;15.30;99.90
29547;DHT22;40782;47.264;11.330;2023-08-06T07:24:06;15.40;99.90
29547;DHT22;40782;47.264;11.330;2023-08-06T07:26:33;15.60;99.90
29547;DHT22;40782;47.264;11.330;2023-08-06T07:29:01;15.70;99.90
29547;DHT22;40782;47.264;11.330;2023-08-06T07:31:28;15.90;99.90
29547;DHT22;40782;47.264;11.330;2023-08-06T07:33:55;15.90;99.90
29547;DHT22;40782;47.264;11.330;2023-08-06T07:36:22;16.00;99.90
29547;DHT22;40782;47.264;11.330;2023-08-06T07:38:50;16.20;99.90
29547;DHT22;40782;47.264;11.330;2023-08-06T07:41:22;16.10;99.90
29547;DHT22;40782;47.264;11.330;2023-08-06T07:43:49;16.20;99.90
29547;DHT22;40782;47.264;11.330;2023-08-06T07:46:16;16.20;99.90
29547;DHT22;40782;47.264;11.330;2023-08-06T07:48:43;16.30;99.90
29547;DHT22;40782;47.264;11.330;2023-08-06T07:51:10;16.40;99.90
29547;DHT22;40782;47.264;11.330;2023-08-06T07:53:37;16.40;99.90
29547;DHT22;40782;47.264;11.330;2023-08-06T07:56:04;16.50;99.90
29547;DHT22;40782;47.264;11.330;2023-08-06T07:58:33;16.60;99.90
29547;DHT22;40782;47.264;11.330;2023-08-06T08:01:00;16.60;99.90
29547;DHT22;40782;47.264;11.330;2023-08-06T08:03:27;16.70;99.90
29547;DHT22;40782;47.264;11.330;2023-08-06T08:05:54;16.70;99.90
29547;DHT22;40782;47.264;11.330;2023-08-06T08:08:23;16.90;99.90
29547;DHT22;40782;47.264;11.330;2023-08-06T08:10:50;17.00;99.90
29547;DHT22;40782;47.264;11.330;2023-08-06T08:13:17;17.00;99.90
29547;DHT22;40782;47.264;11.330;2023-08-06T08:15:46;17.00;99.90
29547;DHT22;40782;47.264;11.330;2023-08-06T08:18:13;17.00;99.90
29547;DHT22;40782;47.264;11.330;2023-08-06T08:20:40;17.00;99.90
29547;DHT22;40782;47.264;11.330;2023-08-06T08:23:07;17.00;99.90
29547;DHT22;40782;47.264;11.330;2023-08-06T08:25:34;16.90;99.90
29547;DHT22;40782;47.264;11.330;2023-08-06T08:28:01;16.80;99.90
29547;DHT22;40782;47.264;11.330;2023-08-06T08:30:28;16.80;99.90
29547;DHT22;40782;47.264;11.330;2023-08-06T08:32:56;16.90;99.90
29547;DHT22;40782;47.264;11.330;2023-08-06T08:35:24;16.80;99.90
29547;DHT22;40782;47.264;11.330;2023-08-06T08:37:51;17.00;99.90
29547;DHT22;40782;47.264;11.330;2023-08-06T08:40:18;16.60;99.90
29547;DHT22;40782;47.264;11.330;2023-08-06T08:42:45;16.60;99.90
29547;DHT22;40782;47.264;11.330;2023-08-06T08:45:12;16.60;99.90
29547;DHT22;40782;47.264;11.330;2023-08-06T08:47:40;16.60;99.90
29547;DHT22;40782;47.264;11.330;2023-08-06T08:50:09;16.60;99.90
29547;DHT22;40782;47.264;11.330;2023-08-06T08:52:38;16.50;99.90
29547;DHT22;40782;47.264;11.330;2023-08-06T08:55:04;16.70;99.90
29547;DHT22;40782;47.264;11.330;2023-08-06T08:57:32;16.70;99.90
29547;DHT22;40782;47.264;11.330;2023-08-06T08:59:59;16.80;99.90
29547;DHT22;40782;47.264;11.330;2023-08-06T09:02:27;16.70;99.90
29547;DHT22;40782;47.264;11.330;2023-08-06T09:04:55;16.80;99.90
29547;DHT22;40782;47.264;11.330;2023-08-06T09:07:24;16.90;99.90
29547;DHT22;40782;47.264;11.330;2023-08-06T09:09:51;17.00;99.90
29547;DHT22;40782;47.264;11.330;2023-08-06T09:12:19;17.10;99.90
29547;DHT22;40782;47.264;11.330;2023-08-06T09:14:46;17.20;99.90
29547;DHT22;40782;47.264;11.330;2023-08-06T09:17:13;17.00;99.90
29547;DHT22;40782;47.264;11.330;2023-08-06T09:19:45;17.30;99.90
29547;DHT22;40782;47.264;11.330;2023-08-06T09:22:13;17.50;99.90
29547;DHT22;40782;47.264;11.330;2023-08-06T09:24:42;17.50;99.90
29547;DHT22;40782;47.264;11.330;2023-08-06T09:27:11;17.50;99.90
29547;DHT22;40782;47.264;11.330;2023-08-06T09:29:42;17.80;99.90
29547;DHT22;40782;47.264;11.330;2023-08-06T09:32:10;18.00;99.90
29547;DHT22;40782;47.264;11.330;2023-08-06T09:34:38;18.00;99.90
29547;DHT22;40782;47.264;11.330;2023-08-06T09:37:05;18.10;99.90
29547;DHT22;40782;47.264;11.330;2023-08-06T09:39:32;18.10;99.90
29547;DHT22;40782;47.264;11.330;2023-08-06T09:42:01;18.10;99.90
29547;DHT22;40782;47.264;11.330;2023-08-06T09:44:30;18.20;99.90
29547;DHT22;40782;47.264;11.330;2023-08-06T09:46:58;18.20;99.90
29547;DHT22;40782;47.264;11.330;2023-08-06T09:49:26;18.10;99.40
29547;DHT22;40782;47.264;11.330;2023-08-06T09:51:53;17.90;99.00
29547;DHT22;40782;47.264;11.330;2023-08-06T09:54:22;18.00;99.90
29547;DHT22;40782;47.264;11.330;2023-08-06T09:56:49;17.80;99.90
29547;DHT22;40782;47.264;11.330;2023-08-06T09:59:18;17.80;99.90
29547;DHT22;40782;47.264;11.330;2023-08-06T10:01:45;17.70;99.90
29547;DHT22;40782;47.264;11.330;2023-08-06T10:04:14;17.70;99.90
29547;DHT22;40782;47.264;11.330;2023-08-06T10:06:41;17.80;99.00
29547;DHT22;40782;47.264;11.330;2023-08-06T10:09:09;17.90;99.90
29547;DHT22;40782;47.264;11.330;2023-08-06T10:11:36;17.90;99.90
29547;DHT22;40782;47.264;11.330;2023-08-06T10:14:05;17.90;99.90
29547;DHT22;40782;47.264;11.330;2023-08-06T10:16:35;18.10;99.90
29547;DHT22;40782;47.264;11.330;2023-08-06T10:19:03;18.30;99.90
29547;DHT22;40782;47.264;11.330;2023-08-06T10:21:31;18.70;99.90
29547;DHT22;40782;47.264;11.330;2023-08-06T10:23:58;18.90;98.90
29547;DHT22;40782;47.264;11.330;2023-08-06T10:26:27;18.90;98.00
29547;DHT22;40782;47.264;11.330;2023-08-06T10:28:54;18.80;97.90
29547;DHT22;40782;47.264;11.330;2023-08-06T10:34:10;18.70;96.10
29547;DHT22;40782;47.264;11.330;2023-08-06T10:36:37;18.90;96.90
29547;DHT22;40782;47.264;11.330;2023-08-06T10:39:05;18.70;98.80
29547;DHT22;40782;47.264;11.330;2023-08-06T10:41:32;18.70;98.20
29547;DHT22;40782;47.264;11.330;2023-08-06T10:44:05;18.80;98.20
29547;DHT22;40782;47.264;11.330;2023-08-06T10:46:33;18.70;97.10
29547;DHT22;40782;47.264;11.330;2023-08-06T10:49:01;19.00;95.60
29547;DHT22;40782;47.264;11.330;2023-08-06T10:51:29;19.40;97.20
29547;DHT22;40782;47.264;11.330;2023-08-06T10:53:56;19.60;96.60
29547;DHT22;40782;47.264;11.330;2023-08-06T10:56:24;20.00;95.60
29547;DHT22;40782;47.264;11.330;2023-08-06T10:58:54;20.10;96.50
29547;DHT22;40782;47.264;11.330;2023-08-06T11:01:21;20.20;96.30
29547;DHT22;40782;47.264;11.330;2023-08-06T11:03:48;20.30;96.30
29547;DHT22;40782;47.264;11.330;2023-08-06T11:06:17;20.50;95.60
29547;DHT22;40782;47.264;11.330;2023-08-06T11:08:48;20.40;95.40
29547;DHT22;40782;47.264;11.330;2023-08-06T11:11:16;20.00;95.40
29547;DHT22;40782;47.264;11.330;2023-08-06T11:13:43;19.90;90.10
29547;DHT22;40782;47.264;11.330;2023-08-06T11:16:12;19.90;86.60
29547;DHT22;40782;47.264;11.330;2023-08-06T11:18:39;19.80;84.30
29547;DHT22;40782;47.264;11.330;2023-08-06T11:21:07;19.90;85.80
29547;DHT22;40782;47.264;11.330;2023-08-06T11:23:34;19.70;85.10
29547;DHT22;40782;47.264;11.330;2023-08-06T11:26:03;19.60;84.90
29547;DHT22;40782;47.264;11.330;2023-08-06T11:28:30;19.70;85.60
29547;DHT22;40782;47.264;11.330;2023-08-06T11:30:58;19.70;85.30
29547;DHT22;40782;47.264;11.330;2023-08-06T11:33:28;19.80;86.20
29547;DHT22;40782;47.264;11.330;2023-08-06T11:35:56;19.70;85.50
29547;DHT22;40782;47.264;11.330;2023-08-06T11:38:24;19.50;86.50
29547;DHT22;40782;47.264;11.330;2023-08-06T11:40:51;19.40;84.90
29547;DHT22;40782;47.264;11.330;2023-08-06T11:43:20;19.20;83.70
29547;DHT22;40782;47.264;11.330;2023-08-06T11:45:48;19.40;85.70
29547;DHT22;40782;47.264;11.330;2023-08-06T11:48:15;19.30;86.30
29547;DHT22;40782;47.264;11.330;2023-08-06T11:50:44;19.40;84.90
29547;DHT22;40782;47.264;11.330;2023-08-06T11:53:12;19.50;85.90
29547;DHT22;40782;47.264;11.330;2023-08-06T11:55:39;19.40;86.30
29547;DHT22;40782;47.264;11.330;2023-08-06T11:58:06;18.70;88.20
29547;DHT22;40782;47.264;11.330;2023-08-06T12:00:36;18.40;90.40
29547;DHT22;40782;47.264;11.330;2023-08-06T12:03:04;18.10;91.00
29547;DHT22;40782;47.264;11.330;2023-08-06T12:05:32;18.20;90.20
29547;DHT22;40782;47.264;11.330;2023-08-06T12:08:00;18.50;89.00
29547;DHT22;40782;47.264;11.330;2023-08-06T12:10:28;18.80;87.50
29547;DHT22;40782;47.264;11.330;2023-08-06T12:12:55;19.10;87.20
29547;DHT22;40782;47.264;11.330;2023-08-06T12:15:22;19.20;85.50
29547;DHT22;40782;47.264;11.330;2023-08-06T12:17:51;19.40;84.70
29547;DHT22;40782;47.264;11.330;2023-08-06T12:20:18;19.40;84.70
29547;DHT22;40782;47.264;11.330;2023-08-06T12:22:45;19.70;84.30
29547;DHT22;40782;47.264;11.330;2023-08-06T12:25:13;19.70;84.20
29547;DHT22;40782;47.264;11.330;2023-08-06T12:27:40;19.90;85.20
29547;DHT22;40782;47.264;11.330;2023-08-06T12:30:08;20.00;82.40
29547;DHT22;40782;47.264;11.330;2023-08-06T12:32:35;20.40;83.20
29547;DHT22;40782;47.264;11.330;2023-08-06T12:35:04;20.30;83.20
29547;DHT22;40782;47.264;11.330;2023-08-06T12:37:32;20.40;84.60
29547;DHT22;40782;47.264;11.330;2023-08-06T12:40:00;20.90;88.30
29547;DHT22;40782;47.264;11.330;2023-08-06T12:42:27;21.40;86.40
29547;DHT22;40782;47.264;11.330;2023-08-06T12:44:54;21.70;86.00
29547;DHT22;40782;47.264;11.330;2023-08-06T12:47:21;21.50;86.20
29547;DHT22;40782;47.264;11.330;2023-08-06T12:49:48;21.40;83.40
29547;DHT22;40782;47.264;11.330;2023-08-06T12:52:17;21.80;78.00
29547;DHT22;40782;47.264;11.330;2023-08-06T12:54:45;21.50;78.60
29547;DHT22;40782;47.264;11.330;2023-08-06T12:57:12;21.20;77.60
29547;DHT22;40782;47.264;11.330;2023-08-06T12:59:40;21.50;75.20
29547;DHT22;40782;47.264;11.330;2023-08-06T13:02:07;21.70;74.90
29547;DHT22;40782;47.264;11.330;2023-08-06T13:04:34;21.60;73.00
29547;DHT22;40782;47.264;11.330;2023-08-06T13:07:01;21.10;72.30
29547;DHT22;40782;47.264;11.330;2023-08-06T13:09:29;21.10;73.30
29547;DHT22;40782;47.264;11.330;2023-08-06T13:11:57;21.40;72.60
29547;DHT22;40782;47.264;11.330;2023-08-06T13:14:25;21.40;78.30
29547;DHT22;40782;47.264;11.330;2023-08-06T13:16:53;21.40;81.20
29547;DHT22;40782;47.264;11.330;2023-08-06T13:19:20;21.10;74.30
29547;DHT22;40782;47.264;11.330;2023-08-06T13:21:59;21.40;75.00
29547;DHT22;40782;47.264;11.330;2023-08-06T13:24:27;21.30;73.00
29547;DHT22;40782;47.264;11.330;2023-08-06T13:26:56;21.30;72.50
29547;DHT22;40782;47.264;11.330;2023-08-06T13:29:24;21.20;70.20
29547;DHT22;40782;47.264;11.330;2023-08-06T13:31:51;21.40;69.90
29547;DHT22;40782;47.264;11.330;2023-08-06T13:34:18;21.50;70.50
29547;DHT22;40782;47.264;11.330;2023-08-06T13:36:45;21.10;70.10
29547;DHT22;40782;47.264;11.330;2023-08-06T13:39:12;21.30;71.40
29547;DHT22;40782;47.264;11.330;2023-08-06T13:41:41;21.60;72.60
29547;DHT22;40782;47.264;11.330;2023-08-06T13:44:10;21.70;69.00
29547;DHT22;40782;47.264;11.330;2023-08-06T13:46:39;22.30;68.90
29547;DHT22;40782;47.264;11.330;2023-08-06T13:49:06;22.10;67.70
29547;DHT22;40782;47.264;11.330;2023-08-06T13:51:33;21.10;69.10
29547;DHT22;40782;47.264;11.330;2023-08-06T13:54:01;20.70;71.70
29547;DHT22;40782;47.264;11.330;2023-08-06T13:56:28;20.60;72.90
29547;DHT22;40782;47.264;11.330;2023-08-06T13:58:56;20.20;71.20
29547;DHT22;40782;47.264;11.330;2023-08-06T14:01:25;20.10;72.30
29547;DHT22;40782;47.264;11.330;2023-08-06T14:03:52;19.90;72.80
29547;DHT22;40782;47.264;11.330;2023-08-06T14:06:19;20.20;72.10
29547;DHT22;40782;47.264;11.330;2023-08-06T14:08:46;20.70;71.20
29547;DHT22;40782;47.264;11.330;2023-08-06T14:11:13;20.70;71.10
29547;DHT22;40782;47.264;11.330;2023-08-06T14:13:40;20.60;74.00
29547;DHT22;40782;47.264;11.330;2023-08-06T14:16:07;21.00;71.80
29547;DHT22;40782;47.264;11.330;2023-08-06T14:18:36;21.30;70.80
29547;DHT22;40782;47.264;11.330;2023-08-06T14:21:04;21.60;69.60
29547;DHT22;40782;47.264;11.330;2023-08-06T14:23:31;21.80;69.80
29547;DHT22;40782;47.264;11.330;2023-08-06T14:25:58;22.10;66.80
29547;DHT22;40782;47.264;11.330;2023-08-06T14:28:25;22.10;69.30
29547;DHT22;40782;47.264;11.330;2023-08-06T14:30:52;22.70;68.20
29547;DHT22;40782;47.264;11.330;2023-08-06T14:33:19;22.70;68.40
29547;DHT22;40782;47.264;11.330;2023-08-06T14:35:49;22.70;68.50
29547;DHT22;40782;47.264;11.330;2023-08-06T14:38:17;22.70;64.50
29547;DHT22;40782;47.264;11.330;2023-08-06T14:40:44;22.70;64.70
29547;DHT22;40782;47.264;11.330;2023-08-06T14:43:11;22.70;65.00
29547;DHT22;40782;47.264;11.330;2023-08-06T14:45:38;22.40;65.60
29547;DHT22;40782;47.264;11.330;2023-08-06T14:48:05;22.60;64.50
29547;DHT22;40782;47.264;11.330;2023-08-06T14:50:33;22.80;64.20
29547;DHT22;40782;47.264;11.330;2023-08-06T14:53:01;22.80;63.40
29547;DHT22;40782;47.264;11.330;2023-08-06T14:55:30;22.90;63.80
29547;DHT22;40782;47.264;11.330;2023-08-06T14:57:57;22.90;61.20
29547;DHT22;40782;47.264;11.330;2023-08-06T15:00:25;22.60;61.90
29547;DHT22;40782;47.264;11.330;2023-08-06T15:02:52;22.30;61.40
29547;DHT22;40782;47.264;11.330;2023-08-06T15:05:19;21.60;61.40
29547;DHT22;40782;47.264;11.330;2023-08-06T15:07:46;21.40;63.40
29547;DHT22;40782;47.264;11.330;2023-08-06T15:10:15;21.60;64.40
29547;DHT22;40782;47.264;11.330;2023-08-06T15:12:42;21.70;65.40
29547;DHT22;40782;47.264;11.330;2023-08-06T15:15:09;22.10;65.20
29547;DHT22;40782;47.264;11.330;2023-08-06T15:17:36;22.20;63.80
29547;DHT22;40782;47.264;11.330;2023-08-06T15:20:04;22.70;64.10